sensor_id;sensor_type;location;lat;lon;timestamp;P1;durP1;ratioP1;P2;durP2;ratioP2
48578;SDS011;34357;51.948;6.132;2023-08-01T00:00:47;14.95;;;8.50;;
48578;SDS011;34357;51.948;6.132;2023-08-01T00:03:13;13.35;;;9.25;;
48578;SDS011;34357;51.948;6.132;2023-08-01T00:05:39;17.02;;;9.00;;
48578;SDS011;34357;51.948;6.132;2023-08-01T00:08:10;13.45;;;8.77;;
48578;SDS011;34357;51.948;6.132;2023-08-01T00:10:39;13.63;;;9.48;;
48578;SDS011;34357;51.948;6.132;2023-08-01T00:13:05;15.63;;;9.00;;
48578;SDS011;34357;51.948;6.132;2023-08-01T00:15:31;11.95;;;8.30;;
48578;SDS011;34357;51.948;6.132;2023-08-01T00:17:58;13.63;;;9.13;;
48578;SDS011;34357;51.948;6.132;2023-08-01T00:20:24;13.90;;;9.75;;
48578;SDS011;34357;51.948;6.132;2023-08-01T00:22:49;13.77;;;9.70;;
48578;SDS011;34357;51.948;6.132;2023-08-01T00:25:17;14.23;;;10.35;;
48578;SDS011;34357;51.948;6.132;2023-08-01T00:27:43;13.48;;;9.63;;
48578;SDS011;34357;51.948;6.132;2023-08-01T00:30:09;17.63;;;10.10;;
48578;SDS011;34357;51.948;6.132;2023-08-01T00:32:35;19.13;;;10.20;;
48578;SDS011;34357;51.948;6.132;2023-08-01T00:35:02;13.93;;;10.10;;
48578;SDS011;34357;51.948;6.132;2023-08-01T00:37:28;20.67;;;9.43;;
48578;SDS011;34357;51.948;6.132;2023-08-01T00:39:54;16.58;;;10.00;;
48578;SDS011;34357;51.948;6.132;2023-08-01T00:42:19;18.80;;;11.18;;
48578;SDS011;34357;51.948;6.132;2023-08-01T00:44:45;14.93;;;9.88;;
48578;SDS011;34357;51.948;6.132;2023-08-01T00:47:13;20.13;;;10.88;;
48578;SDS011;34357;51.948;6.132;2023-08-01T00:49:39;18.42;;;10.70;;
48578;SDS011;34357;51.948;6.132;2023-08-01T00:52:05;16.50;;;10.50;;
48578;SDS011;34357;51.948;6.132;2023-08-01T00:54:32;15.63;;;10.70;;
48578;SDS011;34357;51.948;6.132;2023-08-01T00:57:04;16.52;;;9.60;;
48578;SDS011;34357;51.948;6.132;2023-08-01T00:59:31;14.70;;;9.48;;
48578;SDS011;34357;51.948;6.132;2023-08-01T01:01:58;14.07;;;9.82;;
48578;SDS011;34357;51.948;6.132;2023-08-01T01:04:24;13.23;;;9.55;;
48578;SDS011;34357;51.948;6.132;2023-08-01T01:06:57;18.02;;;9.60;;
48578;SDS011;34357;51.948;6.132;2023-08-01T01:09:28;15.13;;;9.70;;
48578;SDS011;34357;51.948;6.132;2023-08-01T01:11:56;16.92;;;10.27;;
48578;SDS011;34357;51.948;6.132;2023-08-01T01:14:24;18.20;;;9.57;;
48578;SDS011;34357;51.948;6.132;2023-08-01T01:16:50;16.80;;;9.25;;
48578;SDS011;34357;51.948;6.132;2023-08-01T01:19:16;14.80;;;8.50;;
48578;SDS011;34357;51.948;6.132;2023-08-01T01:21:42;13.48;;;8.10;;
48578;SDS011;34357;51.948;6.132;2023-08-01T01:24:09;15.10;;;7.65;;
48578;SDS011;34357;51.948;6.132;2023-08-01T01:26:37;13.77;;;7.35;;
48578;SDS011;34357;51.948;6.132;2023-08-01T01:29:04;16.67;;;7.07;;
48578;SDS011;34357;51.948;6.132;2023-08-01T01:31:31;12.88;;;7.25;;
48578;SDS011;34357;51.948;6.132;2023-08-01T01:33:59;15.68;;;8.18;;
48578;SDS011;34357;51.948;6.132;2023-08-01T01:36:28;12.80;;;7.68;;
48578;SDS011;34357;51.948;6.132;2023-08-01T01:38:54;14.70;;;7.47;;
48578;SDS011;34357;51.948;6.132;2023-08-01T01:41:20;16.77;;;7.50;;
48578;SDS011;34357;51.948;6.132;2023-08-01T01:43:45;10.40;;;6.55;;
48578;SDS011;34357;51.948;6.132;2023-08-01T01:46:11;14.60;;;6.95;;
48578;SDS011;34357;51.948;6.132;2023-08-01T01:48:37;17.58;;;7.30;;
48578;SDS011;34357;51.948;6.132;2023-08-01T01:51:03;14.82;;;7.45;;
48578;SDS011;34357;51.948;6.132;2023-08-01T01:53:28;15.55;;;8.27;;
48578;SDS011;34357;51.948;6.132;2023-08-01T01:55:54;17.85;;;8.95;;
48578;SDS011;34357;51.948;6.132;2023-08-01T01:58:20;16.38;;;9.55;;
48578;SDS011;34357;51.948;6.132;2023-08-01T02:00:45;17.30;;;8.90;;
48578;SDS011;34357;51.948;6.132;2023-08-01T02:03:11;19.17;;;10.27;;
48578;SDS011;34357;51.948;6.132;2023-08-01T02:05:39;16.23;;;9.90;;
48578;SDS011;34357;51.948;6.132;2023-08-01T02:08:06;15.55;;;9.55;;
48578;SDS011;34357;51.948;6.132;2023-08-01T02:10:32;16.02;;;8.63;;
48578;SDS011;34357;51.948;6.132;2023-08-01T02:12:57;13.10;;;8.93;;
48578;SDS011;34357;51.948;6.132;2023-08-01T02:15:23;17.52;;;8.43;;
48578;SDS011;34357;51.948;6.132;2023-08-01T02:17:49;14.20;;;9.23;;
48578;SDS011;34357;51.948;6.132;2023-08-01T02:20:15;19.23;;;8.57;;
48578;SDS011;34357;51.948;6.132;2023-08-01T02:22:41;21.00;;;9.07;;
48578;SDS011;34357;51.948;6.132;2023-08-01T02:25:06;17.00;;;9.23;;
48578;SDS011;34357;51.948;6.132;2023-08-01T02:27:32;22.15;;;9.13;;
48578;SDS011;34357;51.948;6.132;2023-08-01T02:29:58;17.83;;;8.40;;
48578;SDS011;34357;51.948;6.132;2023-08-01T02:32:24;19.35;;;8.73;;
48578;SDS011;34357;51.948;6.132;2023-08-01T02:34:50;21.85;;;9.50;;
48578;SDS011;34357;51.948;6.132;2023-08-01T02:37:16;21.15;;;8.98;;
48578;SDS011;34357;51.948;6.132;2023-08-01T02:39:41;18.88;;;9.40;;
48578;SDS011;34357;51.948;6.132;2023-08-01T02:42:07;23.02;;;8.85;;
48578;SDS011;34357;51.948;6.132;2023-08-01T02:44:33;19.20;;;9.02;;
48578;SDS011;34357;51.948;6.132;2023-08-01T02:46:59;20.20;;;10.50;;
48578;SDS011;34357;51.948;6.132;2023-08-01T02:49:25;24.63;;;11.10;;
48578;SDS011;34357;51.948;6.132;2023-08-01T02:51:50;20.13;;;10.82;;
48578;SDS011;34357;51.948;6.132;2023-08-01T02:54:16;25.67;;;10.93;;
48578;SDS011;34357;51.948;6.132;2023-08-01T02:56:42;25.95;;;11.60;;
48578;SDS011;34357;51.948;6.132;2023-08-01T02:59:07;25.45;;;11.73;;
48578;SDS011;34357;51.948;6.132;2023-08-01T03:01:34;22.65;;;11.50;;
48578;SDS011;34357;51.948;6.132;2023-08-01T03:04:02;25.80;;;12.57;;
48578;SDS011;34357;51.948;6.132;2023-08-01T03:06:29;23.38;;;12.32;;
48578;SDS011;34357;51.948;6.132;2023-08-01T03:08:55;25.25;;;13.57;;
48578;SDS011;34357;51.948;6.132;2023-08-01T03:11:22;23.38;;;13.65;;
48578;SDS011;34357;51.948;6.132;2023-08-01T03:13:48;33.60;;;14.55;;
48578;SDS011;34357;51.948;6.132;2023-08-01T03:16:13;29.55;;;13.63;;
48578;SDS011;34357;51.948;6.132;2023-08-01T03:18:39;24.10;;;13.80;;
48578;SDS011;34357;51.948;6.132;2023-08-01T03:21:05;25.55;;;14.52;;
48578;SDS011;34357;51.948;6.132;2023-08-01T03:23:31;30.00;;;12.70;;
48578;SDS011;34357;51.948;6.132;2023-08-01T03:25:57;26.02;;;13.35;;
48578;SDS011;34357;51.948;6.132;2023-08-01T03:28:22;27.63;;;14.27;;
48578;SDS011;34357;51.948;6.132;2023-08-01T03:30:48;32.00;;;14.27;;
48578;SDS011;34357;51.948;6.132;2023-08-01T03:33:16;26.35;;;13.18;;
48578;SDS011;34357;51.948;6.132;2023-08-01T03:35:41;27.42;;;12.85;;
48578;SDS011;34357;51.948;6.132;2023-08-01T03:38:07;25.10;;;13.05;;
48578;SDS011;34357;51.948;6.132;2023-08-01T03:40:33;31.60;;;13.88;;
48578;SDS011;34357;51.948;6.132;2023-08-01T03:42:58;26.52;;;13.18;;
48578;SDS011;34357;51.948;6.132;2023-08-01T03:45:24;22.70;;;11.55;;
48578;SDS011;34357;51.948;6.132;2023-08-01T03:47:50;30.08;;;12.95;;
48578;SDS011;34357;51.948;6.132;2023-08-01T03:50:16;31.65;;;12.90;;
48578;SDS011;34357;51.948;6.132;2023-08-01T03:52:42;28.13;;;12.80;;
48578;SDS011;34357;51.948;6.132;2023-08-01T03:55:07;28.17;;;12.13;;
48578;SDS011;34357;51.948;6.132;2023-08-01T03:57:34;19.88;;;11.82;;
48578;SDS011;34357;51.948;6.132;2023-08-01T04:00:01;32.08;;;12.82;;
48578;SDS011;34357;51.948;6.132;2023-08-01T04:02:37;33.17;;;12.65;;
48578;SDS011;34357;51.948;6.132;2023-08-01T04:05:03;27.17;;;11.00;;
48578;SDS011;34357;51.948;6.132;2023-08-01T04:07:30;23.38;;;10.48;;
48578;SDS011;34357;51.948;6.132;2023-08-01T04:09:56;27.38;;;11.25;;
48578;SDS011;34357;51.948;6.132;2023-08-01T04:12:21;33.63;;;11.02;;
48578;SDS011;34357;51.948;6.132;2023-08-01T04:14:47;28.95;;;10.88;;
48578;SDS011;34357;51.948;6.132;2023-08-01T04:17:13;31.60;;;11.00;;
48578;SDS011;34357;51.948;6.132;2023-08-01T04:19:38;20.63;;;10.05;;
48578;SDS011;34357;51.948;6.132;2023-08-01T04:22:04;23.63;;;9.77;;
48578;SDS011;34357;51.948;6.132;2023-08-01T04:24:30;20.08;;;9.57;;
48578;SDS011;34357;51.948;6.132;2023-08-01T04:26:56;22.58;;;10.45;;
48578;SDS011;34357;51.948;6.132;2023-08-01T04:29:21;23.63;;;9.95;;
48578;SDS011;34357;51.948;6.132;2023-08-01T04:31:47;24.15;;;10.25;;
48578;SDS011;34357;51.948;6.132;2023-08-01T04:34:13;26.33;;;9.93;;
48578;SDS011;34357;51.948;6.132;2023-08-01T04:36:39;24.13;;;9.95;;
48578;SDS011;34357;51.948;6.132;2023-08-01T04:39:04;24.67;;;10.50;;
48578;SDS011;34357;51.948;6.132;2023-08-01T04:41:31;21.38;;;10.30;;
48578;SDS011;34357;51.948;6.132;2023-08-01T04:43:56;23.60;;;10.52;;
48578;SDS011;34357;51.948;6.132;2023-08-01T04:46:22;29.90;;;11.07;;
48578;SDS011;34357;51.948;6.132;2023-08-01T04:48:48;24.38;;;9.57;;
48578;SDS011;34357;51.948;6.132;2023-08-01T04:51:13;24.50;;;10.10;;
48578;SDS011;34357;51.948;6.132;2023-08-01T04:53:39;26.25;;;10.10;;
48578;SDS011;34357;51.948;6.132;2023-08-01T04:56:05;27.13;;;9.70;;
48578;SDS011;34357;51.948;6.132;2023-08-01T04:58:30;25.17;;;10.18;;
48578;SDS011;34357;51.948;6.132;2023-08-01T05:00:56;21.23;;;9.32;;
48578;SDS011;34357;51.948;6.132;2023-08-01T05:03:22;28.80;;;10.18;;
48578;SDS011;34357;51.948;6.132;2023-08-01T05:05:47;27.77;;;9.10;;
48578;SDS011;34357;51.948;6.132;2023-08-01T05:08:13;21.08;;;8.20;;
48578;SDS011;34357;51.948;6.132;2023-08-01T05:10:39;18.17;;;7.82;;
48578;SDS011;34357;51.948;6.132;2023-08-01T05:13:05;19.30;;;8.95;;
48578;SDS011;34357;51.948;6.132;2023-08-01T05:15:31;23.73;;;9.63;;
48578;SDS011;34357;51.948;6.132;2023-08-01T05:17:56;24.90;;;9.50;;
48578;SDS011;34357;51.948;6.132;2023-08-01T05:20:22;25.48;;;9.82;;
48578;SDS011;34357;51.948;6.132;2023-08-01T05:22:48;26.77;;;9.30;;
48578;SDS011;34357;51.948;6.132;2023-08-01T05:25:13;22.50;;;8.95;;
48578;SDS011;34357;51.948;6.132;2023-08-01T05:27:39;24.88;;;9.25;;
48578;SDS011;34357;51.948;6.132;2023-08-01T05:30:05;21.50;;;9.27;;
48578;SDS011;34357;51.948;6.132;2023-08-01T05:32:31;22.83;;;8.82;;
48578;SDS011;34357;51.948;6.132;2023-08-01T05:34:57;23.23;;;9.25;;
48578;SDS011;34357;51.948;6.132;2023-08-01T05:37:22;31.00;;;9.38;;
48578;SDS011;34357;51.948;6.132;2023-08-01T05:39:49;21.27;;;9.13;;
48578;SDS011;34357;51.948;6.132;2023-08-01T05:42:15;24.75;;;9.30;;
48578;SDS011;34357;51.948;6.132;2023-08-01T05:44:41;24.83;;;9.45;;
48578;SDS011;34357;51.948;6.132;2023-08-01T05:47:06;18.55;;;8.93;;
48578;SDS011;34357;51.948;6.132;2023-08-01T05:49:32;27.38;;;10.02;;
48578;SDS011;34357;51.948;6.132;2023-08-01T05:51:58;26.88;;;10.50;;
48578;SDS011;34357;51.948;6.132;2023-08-01T05:54:23;24.42;;;10.45;;
48578;SDS011;34357;51.948;6.132;2023-08-01T05:56:49;26.70;;;11.30;;
48578;SDS011;34357;51.948;6.132;2023-08-01T05:59:15;32.97;;;11.60;;
48578;SDS011;34357;51.948;6.132;2023-08-01T06:01:40;22.30;;;9.65;;
48578;SDS011;34357;51.948;6.132;2023-08-01T06:04:06;22.85;;;10.80;;
48578;SDS011;34357;51.948;6.132;2023-08-01T06:06:32;22.02;;;10.65;;
48578;SDS011;34357;51.948;6.132;2023-08-01T06:08:58;24.17;;;10.85;;
48578;SDS011;34357;51.948;6.132;2023-08-01T06:11:24;23.70;;;10.63;;
48578;SDS011;34357;51.948;6.132;2023-08-01T06:13:52;22.58;;;8.98;;
48578;SDS011;34357;51.948;6.132;2023-08-01T06:16:17;22.63;;;9.13;;
48578;SDS011;34357;51.948;6.132;2023-08-01T06:18:43;19.75;;;8.68;;
48578;SDS011;34357;51.948;6.132;2023-08-01T06:21:09;22.35;;;8.45;;
48578;SDS011;34357;51.948;6.132;2023-08-01T06:23:34;21.58;;;8.65;;
48578;SDS011;34357;51.948;6.132;2023-08-01T06:26:00;21.88;;;7.60;;
48578;SDS011;34357;51.948;6.132;2023-08-01T06:28:26;23.75;;;8.52;;
48578;SDS011;34357;51.948;6.132;2023-08-01T06:30:51;22.33;;;8.02;;
48578;SDS011;34357;51.948;6.132;2023-08-01T06:33:17;19.13;;;7.60;;
48578;SDS011;34357;51.948;6.132;2023-08-01T06:35:43;22.40;;;7.55;;
48578;SDS011;34357;51.948;6.132;2023-08-01T06:38:08;17.98;;;8.18;;
48578;SDS011;34357;51.948;6.132;2023-08-01T06:40:34;21.08;;;8.50;;
48578;SDS011;34357;51.948;6.132;2023-08-01T06:43:00;20.73;;;7.90;;
48578;SDS011;34357;51.948;6.132;2023-08-01T06:45:26;20.52;;;8.25;;
48578;SDS011;34357;51.948;6.132;2023-08-01T06:47:51;17.80;;;7.05;;
48578;SDS011;34357;51.948;6.132;2023-08-01T06:50:17;25.70;;;7.20;;
48578;SDS011;34357;51.948;6.132;2023-08-01T06:52:43;23.33;;;8.02;;
48578;SDS011;34357;51.948;6.132;2023-08-01T06:55:09;21.88;;;7.28;;
48578;SDS011;34357;51.948;6.132;2023-08-01T06:57:35;24.05;;;7.72;;
48578;SDS011;34357;51.948;6.132;2023-08-01T07:00:00;41.42;;;10.25;;
48578;SDS011;34357;51.948;6.132;2023-08-01T07:02:26;28.48;;;7.30;;
48578;SDS011;34357;51.948;6.132;2023-08-01T07:04:52;21.27;;;6.82;;
48578;SDS011;34357;51.948;6.132;2023-08-01T07:07:17;15.57;;;5.88;;
48578;SDS011;34357;51.948;6.132;2023-08-01T07:09:43;13.95;;;5.75;;
48578;SDS011;34357;51.948;6.132;2023-08-01T07:12:09;14.68;;;5.68;;
48578;SDS011;34357;51.948;6.132;2023-08-01T07:14:35;23.33;;;5.50;;
48578;SDS011;34357;51.948;6.132;2023-08-01T07:17:01;16.35;;;5.65;;
48578;SDS011;34357;51.948;6.132;2023-08-01T07:19:26;16.25;;;5.65;;
48578;SDS011;34357;51.948;6.132;2023-08-01T07:21:52;17.65;;;5.55;;
48578;SDS011;34357;51.948;6.132;2023-08-01T07:24:18;18.58;;;5.10;;
48578;SDS011;34357;51.948;6.132;2023-08-01T07:26:44;17.13;;;5.93;;
48578;SDS011;34357;51.948;6.132;2023-08-01T07:29:26;19.30;;;5.28;;
48578;SDS011;34357;51.948;6.132;2023-08-01T07:31:51;16.70;;;6.28;;
48578;SDS011;34357;51.948;6.132;2023-08-01T07:34:17;16.65;;;5.03;;
48578;SDS011;34357;51.948;6.132;2023-08-01T07:36:43;16.92;;;4.50;;
48578;SDS011;34357;51.948;6.132;2023-08-01T07:39:09;19.38;;;5.93;;
48578;SDS011;34357;51.948;6.132;2023-08-01T07:41:35;14.98;;;4.75;;
48578;SDS011;34357;51.948;6.132;2023-08-01T07:44:01;12.15;;;4.88;;
48578;SDS011;34357;51.948;6.132;2023-08-01T07:46:28;15.32;;;4.40;;
48578;SDS011;34357;51.948;6.132;2023-08-01T07:48:54;11.43;;;3.75;;
48578;SDS011;34357;51.948;6.132;2023-08-01T07:51:20;10.68;;;3.70;;
48578;SDS011;34357;51.948;6.132;2023-08-01T07:53:45;15.65;;;3.80;;
48578;SDS011;34357;51.948;6.132;2023-08-01T07:56:11;11.88;;;3.67;;
48578;SDS011;34357;51.948;6.132;2023-08-01T07:58:37;11.63;;;3.25;;
48578;SDS011;34357;51.948;6.132;2023-08-01T08:01:06;8.88;;;3.15;;
48578;SDS011;34357;51.948;6.132;2023-08-01T08:03:31;11.50;;;3.50;;
48578;SDS011;34357;51.948;6.132;2023-08-01T08:05:57;11.50;;;3.28;;
48578;SDS011;34357;51.948;6.132;2023-08-01T08:08:23;13.02;;;3.63;;
48578;SDS011;34357;51.948;6.132;2023-08-01T08:10:49;11.90;;;3.45;;
48578;SDS011;34357;51.948;6.132;2023-08-01T08:13:15;16.83;;;4.47;;
48578;SDS011;34357;51.948;6.132;2023-08-01T08:15:41;10.82;;;4.10;;
48578;SDS011;34357;51.948;6.132;2023-08-01T08:18:07;11.60;;;4.10;;
48578;SDS011;34357;51.948;6.132;2023-08-01T08:20:33;20.88;;;4.72;;
48578;SDS011;34357;51.948;6.132;2023-08-01T08:23:06;13.23;;;4.05;;
48578;SDS011;34357;51.948;6.132;2023-08-01T08:25:32;10.77;;;4.25;;
48578;SDS011;34357;51.948;6.132;2023-08-01T08:27:58;12.27;;;4.03;;
48578;SDS011;34357;51.948;6.132;2023-08-01T08:30:24;15.23;;;3.65;;
48578;SDS011;34357;51.948;6.132;2023-08-01T08:32:50;14.15;;;3.70;;
48578;SDS011;34357;51.948;6.132;2023-08-01T08:35:15;17.15;;;4.60;;
48578;SDS011;34357;51.948;6.132;2023-08-01T08:37:41;19.27;;;4.60;;
48578;SDS011;34357;51.948;6.132;2023-08-01T08:40:07;8.63;;;2.95;;
48578;SDS011;34357;51.948;6.132;2023-08-01T08:42:33;14.88;;;3.90;;
48578;SDS011;34357;51.948;6.132;2023-08-01T08:45:01;7.35;;;3.60;;
48578;SDS011;34357;51.948;6.132;2023-08-01T08:47:27;14.20;;;4.15;;
48578;SDS011;34357;51.948;6.132;2023-08-01T08:49:56;14.30;;;4.07;;
48578;SDS011;34357;51.948;6.132;2023-08-01T08:52:25;17.70;;;5.00;;
48578;SDS011;34357;51.948;6.132;2023-08-01T08:54:52;9.90;;;4.57;;
48578;SDS011;34357;51.948;6.132;2023-08-01T08:57:18;15.15;;;4.05;;
48578;SDS011;34357;51.948;6.132;2023-08-01T08:59:46;17.08;;;3.97;;
48578;SDS011;34357;51.948;6.132;2023-08-01T09:02:12;12.70;;;4.13;;
48578;SDS011;34357;51.948;6.132;2023-08-01T09:04:40;8.35;;;3.15;;
48578;SDS011;34357;51.948;6.132;2023-08-01T09:07:07;11.98;;;3.78;;
48578;SDS011;34357;51.948;6.132;2023-08-01T09:09:36;11.18;;;3.50;;
48578;SDS011;34357;51.948;6.132;2023-08-01T09:12:02;9.63;;;3.83;;
48578;SDS011;34357;51.948;6.132;2023-08-01T09:14:29;9.35;;;3.30;;
48578;SDS011;34357;51.948;6.132;2023-08-01T09:17:05;11.05;;;3.05;;
48578;SDS011;34357;51.948;6.132;2023-08-01T09:19:32;11.63;;;3.30;;
48578;SDS011;34357;51.948;6.132;2023-08-01T09:21:58;9.55;;;3.17;;
48578;SDS011;34357;51.948;6.132;2023-08-01T09:24:24;11.95;;;3.10;;
48578;SDS011;34357;51.948;6.132;2023-08-01T09:26:49;11.88;;;3.08;;
48578;SDS011;34357;51.948;6.132;2023-08-01T09:29:15;8.68;;;2.92;;
48578;SDS011;34357;51.948;6.132;2023-08-01T09:31:42;15.88;;;3.17;;
48578;SDS011;34357;51.948;6.132;2023-08-01T09:34:21;8.13;;;2.78;;
48578;SDS011;34357;51.948;6.132;2023-08-01T09:36:48;7.07;;;2.80;;
48578;SDS011;34357;51.948;6.132;2023-08-01T09:39:16;8.02;;;3.22;;
48578;SDS011;34357;51.948;6.132;2023-08-01T09:41:43;11.55;;;3.10;;
48578;SDS011;34357;51.948;6.132;2023-08-01T09:44:15;10.90;;;3.15;;
48578;SDS011;34357;51.948;6.132;2023-08-01T09:46:42;8.68;;;2.90;;
48578;SDS011;34357;51.948;6.132;2023-08-01T09:49:12;10.50;;;2.60;;
48578;SDS011;34357;51.948;6.132;2023-08-01T09:51:48;12.63;;;2.83;;
48578;SDS011;34357;51.948;6.132;2023-08-01T09:54:15;4.25;;;1.63;;
48578;SDS011;34357;51.948;6.132;2023-08-01T09:56:44;6.50;;;2.22;;
48578;SDS011;34357;51.948;6.132;2023-08-01T09:59:11;6.70;;;2.85;;
48578;SDS011;34357;51.948;6.132;2023-08-01T10:01:38;8.00;;;2.03;;
48578;SDS011;34357;51.948;6.132;2023-08-01T10:04:06;8.27;;;2.60;;
48578;SDS011;34357;51.948;6.132;2023-08-01T10:06:35;6.18;;;2.15;;
48578;SDS011;34357;51.948;6.132;2023-08-01T10:09:03;8.02;;;2.05;;
48578;SDS011;34357;51.948;6.132;2023-08-01T10:11:30;5.15;;;1.70;;
48578;SDS011;34357;51.948;6.132;2023-08-01T10:13:59;6.03;;;1.85;;
48578;SDS011;34357;51.948;6.132;2023-08-01T10:16:27;12.27;;;2.10;;
48578;SDS011;34357;51.948;6.132;2023-08-01T10:18:54;7.35;;;1.92;;
48578;SDS011;34357;51.948;6.132;2023-08-01T10:21:19;7.68;;;2.08;;
48578;SDS011;34357;51.948;6.132;2023-08-01T10:23:46;10.88;;;2.40;;
48578;SDS011;34357;51.948;6.132;2023-08-01T10:26:13;6.47;;;1.80;;
48578;SDS011;34357;51.948;6.132;2023-08-01T10:28:40;7.07;;;2.05;;
48578;SDS011;34357;51.948;6.132;2023-08-01T10:31:14;6.90;;;2.15;;
48578;SDS011;34357;51.948;6.132;2023-08-01T10:33:42;6.03;;;2.00;;
48578;SDS011;34357;51.948;6.132;2023-08-01T10:36:19;6.32;;;1.90;;
48578;SDS011;34357;51.948;6.132;2023-08-01T10:38:51;8.70;;;2.33;;
48578;SDS011;34357;51.948;6.132;2023-08-01T10:43:46;9.73;;;2.20;;
48578;SDS011;34357;51.948;6.132;2023-08-01T10:46:12;10.40;;;2.67;;
48578;SDS011;34357;51.948;6.132;2023-08-01T10:48:50;11.45;;;2.42;;
48578;SDS011;34357;51.948;6.132;2023-08-01T10:51:17;11.25;;;2.65;;
48578;SDS011;34357;51.948;6.132;2023-08-01T10:53:42;6.35;;;1.90;;
48578;SDS011;34357;51.948;6.132;2023-08-01T10:56:15;7.25;;;1.90;;
48578;SDS011;34357;51.948;6.132;2023-08-01T10:58:42;9.55;;;2.53;;
48578;SDS011;34357;51.948;6.132;2023-08-01T11:01:08;6.05;;;2.08;;
48578;SDS011;34357;51.948;6.132;2023-08-01T11:03:37;10.05;;;2.05;;
48578;SDS011;34357;51.948;6.132;2023-08-01T11:06:04;8.25;;;2.10;;
48578;SDS011;34357;51.948;6.132;2023-08-01T11:08:33;9.57;;;2.03;;
48578;SDS011;34357;51.948;6.132;2023-08-01T11:11:04;9.32;;;2.08;;
48578;SDS011;34357;51.948;6.132;2023-08-01T11:13:35;11.10;;;2.60;;
48578;SDS011;34357;51.948;6.132;2023-08-01T11:16:02;7.60;;;2.17;;
48578;SDS011;34357;51.948;6.132;2023-08-01T11:18:30;9.68;;;2.00;;
48578;SDS011;34357;51.948;6.132;2023-08-01T11:20:56;6.90;;;2.60;;
48578;SDS011;34357;51.948;6.132;2023-08-01T11:23:31;12.93;;;2.17;;
48578;SDS011;34357;51.948;6.132;2023-08-01T11:25:56;10.70;;;2.30;;
48578;SDS011;34357;51.948;6.132;2023-08-01T11:28:22;9.38;;;2.08;;
48578;SDS011;34357;51.948;6.132;2023-08-01T11:30:49;7.32;;;1.92;;
48578;SDS011;34357;51.948;6.132;2023-08-01T11:33:22;7.43;;;2.20;;
48578;SDS011;34357;51.948;6.132;2023-08-01T11:38:27;11.77;;;2.65;;
48578;SDS011;34357;51.948;6.132;2023-08-01T11:40:56;5.75;;;1.70;;
48578;SDS011;34357;51.948;6.132;2023-08-01T11:43:23;8.07;;;1.63;;
48578;SDS011;34357;51.948;6.132;2023-08-01T11:45:52;5.75;;;1.92;;
48578;SDS011;34357;51.948;6.132;2023-08-01T11:48:20;5.07;;;1.70;;
48578;SDS011;34357;51.948;6.132;2023-08-01T11:50:48;8.35;;;2.08;;
48578;SDS011;34357;51.948;6.132;2023-08-01T11:53:18;6.82;;;2.20;;
48578;SDS011;34357;51.948;6.132;2023-08-01T11:55:44;4.93;;;1.80;;
48578;SDS011;34357;51.948;6.132;2023-08-01T11:58:10;6.05;;;2.13;;
48578;SDS011;34357;51.948;6.132;2023-08-01T12:00:36;4.97;;;2.00;;
48578;SDS011;34357;51.948;6.132;2023-08-01T12:03:05;4.65;;;2.00;;
48578;SDS011;34357;51.948;6.132;2023-08-01T12:05:40;6.43;;;1.90;;
48578;SDS011;34357;51.948;6.132;2023-08-01T12:08:13;4.72;;;1.45;;
48578;SDS011;34357;51.948;6.132;2023-08-01T12:10:44;5.70;;;1.48;;
48578;SDS011;34357;51.948;6.132;2023-08-01T12:13:23;5.80;;;1.58;;
48578;SDS011;34357;51.948;6.132;2023-08-01T12:15:54;5.72;;;1.63;;
48578;SDS011;34357;51.948;6.132;2023-08-01T12:18:24;4.38;;;1.42;;
48578;SDS011;34357;51.948;6.132;2023-08-01T12:20:50;5.35;;;1.45;;
48578;SDS011;34357;51.948;6.132;2023-08-01T12:23:15;6.10;;;1.70;;
48578;SDS011;34357;51.948;6.132;2023-08-01T12:25:41;4.82;;;1.23;;
48578;SDS011;34357;51.948;6.132;2023-08-01T12:28:07;8.55;;;1.38;;
48578;SDS011;34357;51.948;6.132;2023-08-01T12:30:33;3.78;;;1.27;;
48578;SDS011;34357;51.948;6.132;2023-08-01T12:32:58;4.45;;;1.67;;
48578;SDS011;34357;51.948;6.132;2023-08-01T12:35:25;6.60;;;1.50;;
48578;SDS011;34357;51.948;6.132;2023-08-01T12:37:52;7.05;;;1.60;;
48578;SDS011;34357;51.948;6.132;2023-08-01T12:40:19;4.78;;;1.42;;
48578;SDS011;34357;51.948;6.132;2023-08-01T12:42:46;4.90;;;1.40;;
48578;SDS011;34357;51.948;6.132;2023-08-01T12:45:12;6.57;;;1.95;;
48578;SDS011;34357;51.948;6.132;2023-08-01T12:47:37;7.50;;;1.80;;
48578;SDS011;34357;51.948;6.132;2023-08-01T12:50:03;4.70;;;1.80;;
48578;SDS011;34357;51.948;6.132;2023-08-01T12:52:30;5.65;;;1.75;;
48578;SDS011;34357;51.948;6.132;2023-08-01T12:54:56;6.90;;;1.38;;
48578;SDS011;34357;51.948;6.132;2023-08-01T12:57:21;6.90;;;1.98;;
48578;SDS011;34357;51.948;6.132;2023-08-01T12:59:48;6.43;;;1.70;;
48578;SDS011;34357;51.948;6.132;2023-08-01T13:02:14;8.77;;;1.50;;
48578;SDS011;34357;51.948;6.132;2023-08-01T13:04:39;6.90;;;2.00;;
48578;SDS011;34357;51.948;6.132;2023-08-01T13:07:05;8.20;;;2.38;;
48578;SDS011;34357;51.948;6.132;2023-08-01T13:09:31;6.50;;;1.92;;
48578;SDS011;34357;51.948;6.132;2023-08-01T13:11:57;5.93;;;2.00;;
48578;SDS011;34357;51.948;6.132;2023-08-01T13:14:25;5.32;;;2.00;;
48578;SDS011;34357;51.948;6.132;2023-08-01T13:16:50;8.88;;;2.38;;
48578;SDS011;34357;51.948;6.132;2023-08-01T13:19:16;5.85;;;1.70;;
48578;SDS011;34357;51.948;6.132;2023-08-01T13:21:42;6.63;;;2.10;;
48578;SDS011;34357;51.948;6.132;2023-08-01T13:24:08;6.60;;;2.03;;
48578;SDS011;34357;51.948;6.132;2023-08-01T13:26:34;15.60;;;2.33;;
48578;SDS011;34357;51.948;6.132;2023-08-01T13:29:01;10.45;;;2.10;;
48578;SDS011;34357;51.948;6.132;2023-08-01T13:31:27;5.32;;;1.95;;
48578;SDS011;34357;51.948;6.132;2023-08-01T13:33:53;9.52;;;2.22;;
48578;SDS011;34357;51.948;6.132;2023-08-01T13:36:20;7.57;;;1.98;;
48578;SDS011;34357;51.948;6.132;2023-08-01T13:38:46;7.50;;;2.40;;
48578;SDS011;34357;51.948;6.132;2023-08-01T13:41:12;9.27;;;2.40;;
48578;SDS011;34357;51.948;6.132;2023-08-01T13:43:38;7.30;;;1.95;;
48578;SDS011;34357;51.948;6.132;2023-08-01T13:46:11;6.88;;;1.90;;
48578;SDS011;34357;51.948;6.132;2023-08-01T13:48:41;11.13;;;2.45;;
48578;SDS011;34357;51.948;6.132;2023-08-01T13:51:08;8.00;;;2.05;;
48578;SDS011;34357;51.948;6.132;2023-08-01T13:53:33;7.15;;;1.77;;
48578;SDS011;34357;51.948;6.132;2023-08-01T13:55:59;10.70;;;2.10;;
48578;SDS011;34357;51.948;6.132;2023-08-01T13:58:25;10.75;;;1.92;;
48578;SDS011;34357;51.948;6.132;2023-08-01T14:00:51;10.10;;;1.95;;
48578;SDS011;34357;51.948;6.132;2023-08-01T14:03:16;9.40;;;2.63;;
48578;SDS011;34357;51.948;6.132;2023-08-01T14:05:42;6.68;;;2.00;;
48578;SDS011;34357;51.948;6.132;2023-08-01T14:08:08;6.28;;;2.08;;
48578;SDS011;34357;51.948;6.132;2023-08-01T14:10:33;6.57;;;1.85;;
48578;SDS011;34357;51.948;6.132;2023-08-01T14:12:59;7.22;;;2.00;;
48578;SDS011;34357;51.948;6.132;2023-08-01T14:15:25;8.95;;;1.85;;
48578;SDS011;34357;51.948;6.132;2023-08-01T14:17:51;8.02;;;1.73;;
48578;SDS011;34357;51.948;6.132;2023-08-01T14:20:18;5.47;;;1.45;;
48578;SDS011;34357;51.948;6.132;2023-08-01T14:22:44;11.38;;;2.53;;
48578;SDS011;34357;51.948;6.132;2023-08-01T14:25:10;9.40;;;2.03;;
48578;SDS011;34357;51.948;6.132;2023-08-01T14:27:35;9.35;;;1.77;;
48578;SDS011;34357;51.948;6.132;2023-08-01T14:30:02;8.45;;;1.80;;
48578;SDS011;34357;51.948;6.132;2023-08-01T14:32:30;10.05;;;2.38;;
48578;SDS011;34357;51.948;6.132;2023-08-01T14:34:56;6.45;;;1.77;;
48578;SDS011;34357;51.948;6.132;2023-08-01T14:37:22;8.02;;;1.75;;